sensor_id;sensor_type;location;lat;lon;timestamp;pressure;altitude;pressure_sealevel;temperature;humidity
59650;BME280;46162;57.568;25.814;2023-03-24T00:02:08;99116.94;;;5.81;100.00
59650;BME280;46162;57.568;25.814;2023-03-24T00:04:37;99117.94;;;5.80;100.00
59650;BME280;46162;57.568;25.814;2023-03-24T00:07:09;99109.75;;;5.81;100.00
59650;BME280;46162;57.568;25.814;2023-03-24T00:09:41;99114.25;;;5.81;100.00
59650;BME280;46162;57.568;25.814;2023-03-24T00:12:11;99122.78;;;5.76;100.00
59650;BME280;46162;57.568;25.814;2023-03-24T00:14:46;99111.38;;;5.74;100.00
59650;BME280;46162;57.568;25.814;2023-03-24T00:17:14;99117.72;;;5.73;100.00
59650;BME280;46162;57.568;25.814;2023-03-24T00:19:44;99110.84;;;5.71;100.00
59650;BME280;46162;57.568;25.814;2023-03-24T00:22:13;99105.69;;;5.69;100.00
59650;BME280;46162;57.568;25.814;2023-03-24T00:24:41;99103.69;;;5.71;100.00
59650;BME280;46162;57.568;25.814;2023-03-24T00:27:12;99111.03;;;5.69;100.00
59650;BME280;46162;57.568;25.814;2023-03-24T00:29:41;99106.38;;;5.71;100.00
59650;BME280;46162;57.568;25.814;2023-03-24T00:32:11;99101.84;;;5.72;100.00
59650;BME280;46162;57.568;25.814;2023-03-24T00:34:40;99100.00;;;5.72;100.00
59650;BME280;46162;57.568;25.814;2023-03-24T00:37:09;99104.84;;;5.69;100.00
59650;BME280;46162;57.568;25.814;2023-03-24T00:39:40;99104.66;;;5.70;100.00
59650;BME280;46162;57.568;25.814;2023-03-24T00:42:09;99103.16;;;5.68;100.00
59650;BME280;46162;57.568;25.814;2023-03-24T00:44:39;99102.31;;;5.67;100.00
59650;BME280;46162;57.568;25.814;2023-03-24T00:47:12;99113.03;;;5.67;100.00
59650;BME280;46162;57.568;25.814;2023-03-24T00:49:43;99112.19;;;5.67;100.00
59650;BME280;46162;57.568;25.814;2023-03-24T00:52:14;99115.00;;;5.65;100.00
59650;BME280;46162;57.568;25.814;2023-03-24T00:54:44;99107.13;;;5.64;100.00
59650;BME280;46162;57.568;25.814;2023-03-24T00:57:14;99110.50;;;5.66;100.00
59650;BME280;46162;57.568;25.814;2023-03-24T00:59:48;99106.28;;;5.63;100.00
59650;BME280;46162;57.568;25.814;2023-03-24T01:02:20;99109.66;;;5.65;100.00
59650;BME280;46162;57.568;25.814;2023-03-24T01:04:52;99100.63;;;5.66;100.00
59650;BME280;46162;57.568;25.814;2023-03-24T01:07:22;99106.47;;;5.62;100.00
59650;BME280;46162;57.568;25.814;2023-03-24T01:09:52;99112.66;;;5.62;100.00
59650;BME280;46162;57.568;25.814;2023-03-24T01:12:26;99116.19;;;5.63;100.00
59650;BME280;46162;57.568;25.814;2023-03-24T01:14:57;99113.00;;;5.59;100.00
59650;BME280;46162;57.568;25.814;2023-03-24T01:17:28;99105.25;;;5.56;100.00
59650;BME280;46162;57.568;25.814;2023-03-24T01:19:57;99104.59;;;5.54;100.00
59650;BME280;46162;57.568;25.814;2023-03-24T01:22:28;99112.63;;;5.54;100.00
59650;BME280;46162;57.568;25.814;2023-03-24T01:24:56;99119.09;;;5.51;100.00
59650;BME280;46162;57.568;25.814;2023-03-24T01:27:27;99118.28;;;5.51;100.00
59650;BME280;46162;57.568;25.814;2023-03-24T01:29:57;99113.75;;;5.51;100.00
59650;BME280;46162;57.568;25.814;2023-03-24T01:32:28;99113.25;;;5.48;100.00
59650;BME280;46162;57.568;25.814;2023-03-24T01:34:57;99117.44;;;5.50;100.00
59650;BME280;46162;57.568;25.814;2023-03-24T01:37:26;99121.13;;;5.49;100.00
59650;BME280;46162;57.568;25.814;2023-03-24T01:39:54;99124.97;;;5.47;100.00
59650;BME280;46162;57.568;25.814;2023-03-24T01:42:25;99131.16;;;5.47;100.00
59650;BME280;46162;57.568;25.814;2023-03-24T01:44:58;99125.63;;;5.49;100.00
59650;BME280;46162;57.568;25.814;2023-03-24T01:47:29;99127.47;;;5.48;100.00
59650;BME280;46162;57.568;25.814;2023-03-24T01:50:02;99134.97;;;5.45;100.00
59650;BME280;46162;57.568;25.814;2023-03-24T01:52:34;99139.63;;;5.43;100.00
59650;BME280;46162;57.568;25.814;2023-03-24T01:55:06;99135.59;;;5.38;100.00
59650;BME280;46162;57.568;25.814;2023-03-24T01:57:40;99131.94;;;5.39;100.00
59650;BME280;46162;57.568;25.814;2023-03-24T02:00:13;99152.66;;;5.37;100.00
59650;BME280;46162;57.568;25.814;2023-03-24T02:03:09;99152.28;;;5.32;100.00
59650;BME280;46162;57.568;25.814;2023-03-24T02:05:49;99157.78;;;5.31;100.00
59650;BME280;46162;57.568;25.814;2023-03-24T02:08:24;99160.78;;;5.28;100.00
59650;BME280;46162;57.568;25.814;2023-03-24T02:10:54;99151.22;;;5.25;100.00
59650;BME280;46162;57.568;25.814;2023-03-24T02:13:31;99168.56;;;5.21;100.00
59650;BME280;46162;57.568;25.814;2023-03-24T02:16:09;99164.53;;;5.17;100.00
59650;BME280;46162;57.568;25.814;2023-03-24T02:18:50;99174.56;;;5.15;100.00
59650;BME280;46162;57.568;25.814;2023-03-24T02:22:03;99173.31;;;5.09;100.00
59650;BME280;46162;57.568;25.814;2023-03-24T02:28:08;99177.84;;;5.09;100.00
59650;BME280;46162;57.568;25.814;2023-03-24T02:30:58;99177.31;;;5.05;100.00
59650;BME280;46162;57.568;25.814;2023-03-24T02:39:57;99196.50;;;5.01;100.00
59650;BME280;46162;57.568;25.814;2023-03-24T02:42:36;99192.28;;;4.98;100.00
59650;BME280;46162;57.568;25.814;2023-03-24T02:45:22;99202.44;;;4.94;100.00
59650;BME280;46162;57.568;25.814;2023-03-24T02:48:08;99196.41;;;4.92;100.00
59650;BME280;46162;57.568;25.814;2023-03-24T02:50:49;99198.72;;;4.87;100.00
59650;BME280;46162;57.568;25.814;2023-03-24T02:53:22;99203.69;;;4.82;100.00
59650;BME280;46162;57.568;25.814;2023-03-24T02:56:17;99196.94;;;4.78;100.00
59650;BME280;46162;57.568;25.814;2023-03-24T02:58:56;99216.63;;;4.77;100.00
59650;BME280;46162;57.568;25.814;2023-03-24T03:01:33;99217.63;;;4.76;100.00
59650;BME280;46162;57.568;25.814;2023-03-24T03:04:23;99217.94;;;4.73;100.00
59650;BME280;46162;57.568;25.814;2023-03-24T03:06:56;99227.25;;;4.69;100.00
59650;BME280;46162;57.568;25.814;2023-03-24T03:09:27;99221.19;;;4.67;100.00
59650;BME280;46162;57.568;25.814;2023-03-24T03:11:59;99217.00;;;4.64;100.00
59650;BME280;46162;57.568;25.814;2023-03-24T03:14:34;99227.84;;;4.63;100.00
59650;BME280;46162;57.568;25.814;2023-03-24T03:17:07;99224.31;;;4.62;100.00
59650;BME280;46162;57.568;25.814;2023-03-24T03:19:40;99240.66;;;4.59;100.00
59650;BME280;46162;57.568;25.814;2023-03-24T03:22:10;99239.81;;;4.59;100.00
59650;BME280;46162;57.568;25.814;2023-03-24T03:24:44;99246.31;;;4.56;100.00
59650;BME280;46162;57.568;25.814;2023-03-24T03:27:19;99251.97;;;4.53;100.00
59650;BME280;46162;57.568;25.814;2023-03-24T03:29:51;99251.78;;;4.55;100.00
59650;BME280;46162;57.568;25.814;2023-03-24T03:32:24;99261.81;;;4.52;100.00
59650;BME280;46162;57.568;25.814;2023-03-24T03:34:56;99265.47;;;4.51;100.00
59650;BME280;46162;57.568;25.814;2023-03-24T03:37:33;99263.78;;;4.50;100.00
59650;BME280;46162;57.568;25.814;2023-03-24T03:40:07;99264.63;;;4.51;100.00
59650;BME280;46162;57.568;25.814;2023-03-24T03:42:44;99270.13;;;4.49;100.00
59650;BME280;46162;57.568;25.814;2023-03-24T03:45:13;99274.09;;;4.45;100.00
59650;BME280;46162;57.568;25.814;2023-03-24T03:47:42;99278.44;;;4.46;100.00
59650;BME280;46162;57.568;25.814;2023-03-24T03:50:11;99269.72;;;4.44;100.00
59650;BME280;46162;57.568;25.814;2023-03-24T03:52:40;99282.78;;;4.47;100.00
59650;BME280;46162;57.568;25.814;2023-03-24T03:55:11;99278.13;;;4.49;100.00
59650;BME280;46162;57.568;25.814;2023-03-24T03:57:43;99274.75;;;4.47;100.00
59650;BME280;46162;57.568;25.814;2023-03-24T04:00:29;99281.94;;;4.47;100.00
59650;BME280;46162;57.568;25.814;2023-03-24T04:03:46;99279.28;;;4.47;100.00
59650;BME280;46162;57.568;25.814;2023-03-24T04:06:35;99283.66;;;4.48;100.00
59650;BME280;46162;57.568;25.814;2023-03-24T04:09:14;99283.78;;;4.46;100.00
59650;BME280;46162;57.568;25.814;2023-03-24T04:12:06;99280.41;;;4.44;100.00
59650;BME280;46162;57.568;25.814;2023-03-24T04:15:21;99290.38;;;4.42;100.00
59650;BME280;46162;57.568;25.814;2023-03-24T04:18:37;99289.84;;;4.39;100.00
59650;BME280;46162;57.568;25.814;2023-03-24T04:21:30;99287.31;;;4.37;100.00
59650;BME280;46162;57.568;25.814;2023-03-24T04:24:21;99294.50;;;4.37;100.00
59650;BME280;46162;57.568;25.814;2023-03-24T04:27:01;99283.94;;;4.35;100.00
59650;BME280;46162;57.568;25.814;2023-03-24T04:29:39;99295.50;;;4.36;100.00
59650;BME280;46162;57.568;25.814;2023-03-24T04:32:30;99299.31;;;4.33;100.00
59650;BME280;46162;57.568;25.814;2023-03-24T04:35:06;99302.81;;;4.34;100.00
59650;BME280;46162;57.568;25.814;2023-03-24T04:37:59;99311.66;;;4.34;100.00
59650;BME280;46162;57.568;25.814;2023-03-24T04:40:34;99326.03;;;4.33;100.00
59650;BME280;46162;57.568;25.814;2023-03-24T04:43:12;99324.19;;;4.34;100.00
59650;BME280;46162;57.568;25.814;2023-03-24T04:45:44;99333.03;;;4.34;100.00
59650;BME280;46162;57.568;25.814;2023-03-24T04:48:49;99334.88;;;4.34;100.00
59650;BME280;46162;57.568;25.814;2023-03-24T04:51:31;99332.22;;;4.34;100.00
59650;BME280;46162;57.568;25.814;2023-03-24T04:54:11;99333.03;;;4.34;100.00
59650;BME280;46162;57.568;25.814;2023-03-24T04:56:50;99340.06;;;4.35;100.00
59650;BME280;46162;57.568;25.814;2023-03-24T04:59:37;99347.09;;;4.36;100.00
59650;BME280;46162;57.568;25.814;2023-03-24T05:02:07;99343.72;;;4.34;100.00
59650;BME280;46162;57.568;25.814;2023-03-24T05:04:49;99341.75;;;4.36;100.00
59650;BME280;46162;57.568;25.814;2023-03-24T05:07:26;99342.31;;;4.40;100.00
59650;BME280;46162;57.568;25.814;2023-03-24T05:09:58;99353.56;;;4.43;100.00
59650;BME280;46162;57.568;25.814;2023-03-24T05:12:28;99349.19;;;4.42;100.00
59650;BME280;46162;57.568;25.814;2023-03-24T05:15:16;99359.88;;;4.42;100.00
59650;BME280;46162;57.568;25.814;2023-03-24T05:17:49;99351.84;;;4.42;100.00
59650;BME280;46162;57.568;25.814;2023-03-24T05:20:23;99354.25;;;4.45;100.00
59650;BME280;46162;57.568;25.814;2023-03-24T05:22:55;99356.06;;;4.45;100.00
59650;BME280;46162;57.568;25.814;2023-03-24T05:25:24;99362.94;;;4.47;100.00
59650;BME280;46162;57.568;25.814;2023-03-24T05:27:53;99362.81;;;4.49;100.00
59650;BME280;46162;57.568;25.814;2023-03-24T05:30:24;99374.34;;;4.49;100.00
59650;BME280;46162;57.568;25.814;2023-03-24T05:33:01;99371.53;;;4.51;100.00
59650;BME280;46162;57.568;25.814;2023-03-24T05:35:32;99369.69;;;4.51;100.00
59650;BME280;46162;57.568;25.814;2023-03-24T05:38:01;99372.94;;;4.55;100.00
59650;BME280;46162;57.568;25.814;2023-03-24T05:40:29;99377.41;;;4.55;100.00
59650;BME280;46162;57.568;25.814;2023-03-24T05:43:13;99377.41;;;4.55;100.00
59650;BME280;46162;57.568;25.814;2023-03-24T05:45:49;99374.63;;;4.56;100.00
59650;BME280;46162;57.568;25.814;2023-03-24T05:48:27;99388.69;;;4.58;100.00
59650;BME280;46162;57.568;25.814;2023-03-24T05:51:11;99392.91;;;4.61;100.00
59650;BME280;46162;57.568;25.814;2023-03-24T05:53:40;99387.53;;;4.61;100.00
59650;BME280;46162;57.568;25.814;2023-03-24T05:56:12;99403.16;;;4.65;100.00
59650;BME280;46162;57.568;25.814;2023-03-24T05:58:59;99402.16;;;4.66;100.00
59650;BME280;46162;57.568;25.814;2023-03-24T06:01:47;99399.34;;;4.68;100.00
59650;BME280;46162;57.568;25.814;2023-03-24T06:04:22;99402.72;;;4.70;100.00
59650;BME280;46162;57.568;25.814;2023-03-24T06:06:57;99409.75;;;4.71;100.00
59650;BME280;46162;57.568;25.814;2023-03-24T06:09:30;99406.78;;;4.74;100.00
59650;BME280;46162;57.568;25.814;2023-03-24T06:12:08;99411.16;;;4.75;100.00
59650;BME280;46162;57.568;25.814;2023-03-24T06:14:43;99402.13;;;4.76;100.00
59650;BME280;46162;57.568;25.814;2023-03-24T06:17:13;99413.66;;;4.77;100.00
59650;BME280;46162;57.568;25.814;2023-03-24T06:19:44;99409.31;;;4.76;100.00
59650;BME280;46162;57.568;25.814;2023-03-24T06:22:36;99416.19;;;4.78;100.00
59650;BME280;46162;57.568;25.814;2023-03-24T06:25:10;99408.00;;;4.80;100.00
59650;BME280;46162;57.568;25.814;2023-03-24T06:27:45;99406.19;;;4.80;100.00
59650;BME280;46162;57.568;25.814;2023-03-24T06:30:20;99414.63;;;4.85;100.00
59650;BME280;46162;57.568;25.814;2023-03-24T06:32:49;99417.00;;;4.88;100.00
59650;BME280;46162;57.568;25.814;2023-03-24T06:35:19;99418.44;;;4.83;100.00
59650;BME280;46162;57.568;25.814;2023-03-24T06:37:54;99416.72;;;4.82;100.00
59650;BME280;46162;57.568;25.814;2023-03-24T06:40:23;99431.94;;;4.81;100.00
59650;BME280;46162;57.568;25.814;2023-03-24T06:42:56;99438.13;;;4.82;100.00
59650;BME280;46162;57.568;25.814;2023-03-24T06:45:25;99446.31;;;4.80;100.00
59650;BME280;46162;57.568;25.814;2023-03-24T06:47:57;99446.31;;;4.80;100.00
59650;BME280;46162;57.568;25.814;2023-03-24T06:50:26;99460.38;;;4.82;100.00
59650;BME280;46162;57.568;25.814;2023-03-24T06:53:05;99464.59;;;4.85;100.00
59650;BME280;46162;57.568;25.814;2023-03-24T06:55:35;99456.41;;;4.86;100.00
59650;BME280;46162;57.568;25.814;2023-03-24T06:58:04;99456.13;;;4.89;100.00
59650;BME280;46162;57.568;25.814;2023-03-24T07:00:33;99459.09;;;4.86;100.00
59650;BME280;46162;57.568;25.814;2023-03-24T07:03:29;99465.13;;;4.88;100.00
59650;BME280;46162;57.568;25.814;2023-03-24T07:06:18;99470.19;;;4.91;100.00
59650;BME280;46162;57.568;25.814;2023-03-24T07:08:54;99476.09;;;4.95;100.00
59650;BME280;46162;57.568;25.814;2023-03-24T07:11:25;99468.63;;;4.99;100.00
59650;BME280;46162;57.568;25.814;2023-03-24T07:14:00;99470.88;;;5.03;100.00
59650;BME280;46162;57.568;25.814;2023-03-24T07:16:30;99464.78;;;5.11;100.00
59650;BME280;46162;57.568;25.814;2023-03-24T07:19:18;99467.56;;;5.19;100.00
59650;BME280;46162;57.568;25.814;2023-03-24T07:21:56;99459.97;;;5.24;100.00
59650;BME280;46162;57.568;25.814;2023-03-24T07:24:41;99452.84;;;5.33;100.00
59650;BME280;46162;57.568;25.814;2023-03-24T07:27:37;99467.88;;;5.44;100.00
59650;BME280;46162;57.568;25.814;2023-03-24T07:30:09;99455.19;;;5.46;100.00
59650;BME280;46162;57.568;25.814;2023-03-24T07:32:43;99460.91;;;5.51;100.00
59650;BME280;46162;57.568;25.814;2023-03-24T07:35:12;99467.97;;;5.52;100.00
59650;BME280;46162;57.568;25.814;2023-03-24T07:37:41;99465.88;;;5.46;100.00
59650;BME280;46162;57.568;25.814;2023-03-24T07:40:12;99469.69;;;5.43;100.00
59650;BME280;46162;57.568;25.814;2023-03-24T07:42:43;99462.50;;;5.44;100.00
59650;BME280;46162;57.568;25.814;2023-03-24T07:45:43;99495.19;;;5.47;100.00
59650;BME280;46162;57.568;25.814;2023-03-24T07:48:12;99486.59;;;5.44;100.00
59650;BME280;46162;57.568;25.814;2023-03-24T07:50:41;99481.94;;;5.46;100.00
59650;BME280;46162;57.568;25.814;2023-03-24T07:53:33;99500.94;;;5.52;100.00
59650;BME280;46162;57.568;25.814;2023-03-24T07:56:04;99510.22;;;5.58;100.00
59650;BME280;46162;57.568;25.814;2023-03-24T07:58:38;99505.84;;;5.57;100.00
59650;BME280;46162;57.568;25.814;2023-03-24T08:01:21;99514.03;;;5.55;100.00
59650;BME280;46162;57.568;25.814;2023-03-24T08:03:52;99499.66;;;5.56;100.00
59650;BME280;46162;57.568;25.814;2023-03-24T08:06:45;99500.34;;;5.58;100.00
59650;BME280;46162;57.568;25.814;2023-03-24T08:09:14;99493.50;;;5.74;100.00
59650;BME280;46162;57.568;25.814;2023-03-24T08:11:45;99492.84;;;5.90;100.00
59650;BME280;46162;57.568;25.814;2023-03-24T08:14:14;99495.94;;;5.95;100.00
59650;BME280;46162;57.568;25.814;2023-03-24T08:16:42;99507.81;;;5.82;100.00
59650;BME280;46162;57.568;25.814;2023-03-24T08:19:12;99506.09;;;5.91;100.00
59650;BME280;46162;57.568;25.814;2023-03-24T08:21:41;99509.75;;;5.90;100.00
59650;BME280;46162;57.568;25.814;2023-03-24T08:24:09;99511.88;;;5.96;100.00
59650;BME280;46162;57.568;25.814;2023-03-24T08:26:38;99509.44;;;5.93;100.00
59650;BME280;46162;57.568;25.814;2023-03-24T08:29:10;99507.72;;;6.02;100.00
59650;BME280;46162;57.568;25.814;2023-03-24T08:31:39;99512.06;;;6.03;100.00
59650;BME280;46162;57.568;25.814;2023-03-24T08:34:08;99501.97;;;5.97;100.00
59650;BME280;46162;57.568;25.814;2023-03-24T08:36:37;99501.09;;;6.06;100.00
59650;BME280;46162;57.568;25.814;2023-03-24T08:39:07;99503.44;;;6.09;100.00
59650;BME280;46162;57.568;25.814;2023-03-24T08:41:36;99495.56;;;6.08;100.00
59650;BME280;46162;57.568;25.814;2023-03-24T08:44:05;99505.69;;;6.14;100.00
59650;BME280;46162;57.568;25.814;2023-03-24T08:46:35;99493.34;;;6.21;100.00
59650;BME280;46162;57.568;25.814;2023-03-24T08:49:03;99502.16;;;6.31;100.00
59650;BME280;46162;57.568;25.814;2023-03-24T08:51:32;99500.38;;;6.40;100.00
59650;BME280;46162;57.568;25.814;2023-03-24T08:54:01;99494.69;;;6.61;100.00
59650;BME280;46162;57.568;25.814;2023-03-24T08:56:30;99491.59;;;6.74;100.00
59650;BME280;46162;57.568;25.814;2023-03-24T08:58:59;99501.41;;;6.83;100.00
59650;BME280;46162;57.568;25.814;2023-03-24T09:01:27;99493.91;;;6.95;100.00
59650;BME280;46162;57.568;25.814;2023-03-24T09:03:57;99496.03;;;7.09;100.00
59650;BME280;46162;57.568;25.814;2023-03-24T09:06:26;99491.19;;;7.13;100.00
59650;BME280;46162;57.568;25.814;2023-03-24T09:08:55;99497.25;;;7.15;100.00
59650;BME280;46162;57.568;25.814;2023-03-24T09:11:24;99504.25;;;7.07;100.00
59650;BME280;46162;57.568;25.814;2023-03-24T09:13:52;99499.03;;;7.06;100.00
59650;BME280;46162;57.568;25.814;2023-03-24T09:16:21;99493.81;;;7.30;100.00
59650;BME280;46162;57.568;25.814;2023-03-24T09:18:50;99487.50;;;7.48;100.00
59650;BME280;46162;57.568;25.814;2023-03-24T09:21:20;99496.03;;;7.43;100.00
59650;BME280;46162;57.568;25.814;2023-03-24T09:23:49;99490.81;;;7.42;100.00
59650;BME280;46162;57.568;25.814;2023-03-24T09:26:17;99491.69;;;7.42;100.00
59650;BME280;46162;57.568;25.814;2023-03-24T09:28:46;99489.47;;;7.38;100.00
59650;BME280;46162;57.568;25.814;2023-03-24T09:31:15;99498.09;;;7.49;100.00
59650;BME280;46162;57.568;25.814;2023-03-24T09:33:43;99498.84;;;7.33;100.00
59650;BME280;46162;57.568;25.814;2023-03-24T09:36:12;99492.75;;;7.23;100.00
59650;BME280;46162;57.568;25.814;2023-03-24T09:38:43;99484.22;;;7.28;100.00
59650;BME280;46162;57.568;25.814;2023-03-24T09:41:15;99487.47;;;7.40;100.00
59650;BME280;46162;57.568;25.814;2023-03-24T09:43:48;99487.78;;;7.37;100.00
59650;BME280;46162;57.568;25.814;2023-03-24T09:46:24;99490.31;;;7.38;100.00
59650;BME280;46162;57.568;25.814;2023-03-24T09:48:55;99472.63;;;7.62;100.00
59650;BME280;46162;57.568;25.814;2023-03-24T09:51:25;99471.53;;;7.89;100.00
59650;BME280;46162;57.568;25.814;2023-03-24T09:54:04;99471.69;;;7.87;100.00
59650;BME280;46162;57.568;25.814;2023-03-24T09:56:42;99473.56;;;8.03;100.00
59650;BME280;46162;57.568;25.814;2023-03-24T09:59:15;99469.53;;;8.15;100.00
59650;BME280;46162;57.568;25.814;2023-03-24T10:01:45;99465.88;;;8.25;100.00
59650;BME280;46162;57.568;25.814;2023-03-24T10:04:16;99457.66;;;8.26;100.00
59650;BME280;46162;57.568;25.814;2023-03-24T10:06:47;99456.44;;;8.12;100.00
59650;BME280;46162;57.568;25.814;2023-03-24T10:09:25;99451.59;;;8.24;100.00
59650;BME280;46162;57.568;25.814;2023-03-24T10:12:08;99458.28;;;8.28;100.00
59650;BME280;46162;57.568;25.814;2023-03-24T10:14:46;99452.63;;;8.39;100.00
59650;BME280;46162;57.568;25.814;2023-03-24T10:17:26;99450.28;;;8.45;100.00
59650;BME280;46162;57.568;25.814;2023-03-24T10:20:03;99452.97;;;8.61;100.00
59650;BME280;46162;57.568;25.814;2023-03-24T10:22:37;99445.06;;;8.59;100.00
59650;BME280;46162;57.568;25.814;2023-03-24T10:25:14;99446.91;;;8.67;100.00
59650;BME280;46162;57.568;25.814;2023-03-24T10:27:49;99440.84;;;8.40;100.00
59650;BME280;46162;57.568;25.814;2023-03-24T10:30:21;99440.31;;;8.21;100.00
59650;BME280;46162;57.568;25.814;2023-03-24T10:32:51;99439.47;;;8.12;100.00
59650;BME280;46162;57.568;25.814;2023-03-24T10:35:24;99440.34;;;8.29;100.00
59650;BME280;46162;57.568;25.814;2023-03-24T10:37:57;99433.78;;;8.48;100.00
59650;BME280;46162;57.568;25.814;2023-03-24T10:40:31;99439.00;;;8.57;100.00
59650;BME280;46162;57.568;25.814;2023-03-24T10:43:02;99424.22;;;8.53;100.00
59650;BME280;46162;57.568;25.814;2023-03-24T10:45:38;99434.78;;;8.55;100.00
59650;BME280;46162;57.568;25.814;2023-03-24T10:48:07;99440.69;;;8.67;100.00
59650;BME280;46162;57.568;25.814;2023-03-24T10:50:41;99445.56;;;8.71;100.00
59650;BME280;46162;57.568;25.814;2023-03-24T10:53:16;99440.84;;;8.65;100.00
59650;BME280;46162;57.568;25.814;2023-03-24T10:55:47;99441.50;;;8.67;100.00
59650;BME280;46162;57.568;25.814;2023-03-24T10:58:18;99440.81;;;8.32;100.00
59650;BME280;46162;57.568;25.814;2023-03-24T11:00:47;99438.84;;;8.43;100.00
59650;BME280;46162;57.568;25.814;2023-03-24T11:03:22;99443.06;;;8.53;100.00
59650;BME280;46162;57.568;25.814;2023-03-24T11:05:57;99441.53;;;8.59;100.00
59650;BME280;46162;57.568;25.814;2023-03-24T11:08:32;99433.44;;;8.67;100.00
59650;BME280;46162;57.568;25.814;2023-03-24T11:11:13;99438.81;;;8.67;100.00
59650;BME280;46162;57.568;25.814;2023-03-24T11:13:52;99436.13;;;8.67;100.00
59650;BME280;46162;57.568;25.814;2023-03-24T11:16:26;99425.03;;;8.62;100.00
59650;BME280;46162;57.568;25.814;2023-03-24T11:18:57;99431.44;;;8.69;100.00
59650;BME280;46162;57.568;25.814;2023-03-24T11:21:28;99437.69;;;8.53;100.00
59650;BME280;46162;57.568;25.814;2023-03-24T11:23:58;99427.41;;;8.57;100.00
59650;BME280;46162;57.568;25.814;2023-03-24T11:26:32;99423.00;;;8.80;100.00
59650;BME280;46162;57.568;25.814;2023-03-24T11:29:04;99420.56;;;9.02;100.00
59650;BME280;46162;57.568;25.814;2023-03-24T11:31:35;99414.34;;;9.01;100.00
59650;BME280;46162;57.568;25.814;2023-03-24T11:34:08;99411.84;;;9.00;100.00
59650;BME280;46162;57.568;25.814;2023-03-24T11:36:46;99414.03;;;8.96;100.00
59650;BME280;46162;57.568;25.814;2023-03-24T11:39:18;99403.78;;;8.92;100.00
59650;BME280;46162;57.568;25.814;2023-03-24T11:42:14;99405.13;;;8.96;100.00
59650;BME280;46162;57.568;25.814;2023-03-24T11:44:47;99406.47;;;8.92;100.00
59650;BME280;46162;57.568;25.814;2023-03-24T11:47:22;99407.50;;;8.91;100.00
59650;BME280;46162;57.568;25.814;2023-03-24T11:49:59;99404.50;;;8.86;100.00
59650;BME280;46162;57.568;25.814;2023-03-24T11:52:35;99403.31;;;8.88;100.00
59650;BME280;46162;57.568;25.814;2023-03-24T11:55:13;99395.34;;;8.95;100.00
59650;BME280;46162;57.568;25.814;2023-03-24T11:57:51;99397.41;;;8.93;100.00
59650;BME280;46162;57.568;25.814;2023-03-24T12:00:25;99395.03;;;8.98;100.00
59650;BME280;46162;57.568;25.814;2023-03-24T12:03:26;99390.97;;;9.02;100.00
59650;BME280;46162;57.568;25.814;2023-03-24T12:06:06;99384.59;;;8.95;100.00
59650;BME280;46162;57.568;25.814;2023-03-24T12:08:48;99379.88;;;8.97;100.00
59650;BME280;46162;57.568;25.814;2023-03-24T12:11:23;99379.88;;;8.97;100.00
59650;BME280;46162;57.568;25.814;2023-03-24T12:13:57;99380.06;;;8.87;100.00
59650;BME280;46162;57.568;25.814;2023-03-24T12:16:38;99372.19;;;8.86;100.00
59650;BME280;46162;57.568;25.814;2023-03-24T12:19:39;99365.81;;;8.78;100.00
59650;BME280;46162;57.568;25.814;2023-03-24T12:22:21;99369.69;;;8.68;100.00
59650;BME280;46162;57.568;25.814;2023-03-24T12:25:15;99370.53;;;8.76;100.00
59650;BME280;46162;57.568;25.814;2023-03-24T12:27:50;99366.34;;;8.74;100.00
59650;BME280;46162;57.568;25.814;2023-03-24T12:30:29;99363.28;;;8.77;100.00
59650;BME280;46162;57.568;25.814;2023-03-24T12:33:19;99369.19;;;8.72;100.00
59650;BME280;46162;57.568;25.814;2023-03-24T12:35:59;99365.81;;;8.70;100.00
59650;BME280;46162;57.568;25.814;2023-03-24T12:38:45;99369.84;;;8.74;100.00
59650;BME280;46162;57.568;25.814;2023-03-24T12:41:28;99364.81;;;8.71;100.00
59650;BME280;46162;57.568;25.814;2023-03-24T12:44:14;99362.50;;;8.68;100.00
59650;BME280;46162;57.568;25.814;2023-03-24T12:46:54;99356.13;;;8.61;100.00
59650;BME280;46162;57.568;25.814;2023-03-24T12:49:50;99348.03;;;8.61;100.00
59650;BME280;46162;57.568;25.814;2023-03-24T12:52:46;99360.47;;;8.62;100.00
59650;BME280;46162;57.568;25.814;2023-03-24T12:55:39;99364.19;;;8.61;100.00
59650;BME280;46162;57.568;25.814;2023-03-24T12:58:13;99354.59;;;8.58;100.00
59650;BME280;46162;57.568;25.814;2023-03-24T13:00:54;99357.81;;;8.54;100.00
59650;BME280;46162;57.568;25.814;2023-03-24T13:03:29;99355.47;;;8.51;100.00
59650;BME280;46162;57.568;25.814;2023-03-24T13:06:11;99361.34;;;8.54;100.00
59650;BME280;46162;57.568;25.814;2023-03-24T13:08:48;99345.53;;;8.51;100.00
59650;BME280;46162;57.568;25.814;2023-03-24T13:11:25;99348.59;;;8.48;100.00
59650;BME280;46162;57.568;25.814;2023-03-24T13:14:01;99342.69;;;8.45;100.00
59650;BME280;46162;57.568;25.814;2023-03-24T13:16:33;99341.34;;;8.40;100.00
59650;BME280;46162;57.568;25.814;2023-03-24T13:19:11;99335.13;;;8.40;100.00
59650;BME280;46162;57.568;25.814;2023-03-24T13:21:42;99338.34;;;8.44;100.00
59650;BME280;46162;57.568;25.814;2023-03-24T13:24:12;99337.97;;;8.38;100.00
59650;BME280;46162;57.568;25.814;2023-03-24T13:26:49;99330.91;;;8.37;100.00
59650;BME280;46162;57.568;25.814;2023-03-24T13:29:27;99330.06;;;8.37;100.00
59650;BME280;46162;57.568;25.814;2023-03-24T13:32:20;99326.22;;;8.39;100.00
59650;BME280;46162;57.568;25.814;2023-03-24T13:34:56;99321.53;;;8.42;100.00
59650;BME280;46162;57.568;25.814;2023-03-24T13:37:32;99318.16;;;8.39;100.00
59650;BME280;46162;57.568;25.814;2023-03-24T13:40:08;99306.69;;;8.37;100.00
59650;BME280;46162;57.568;25.814;2023-03-24T13:42:42;99316.13;;;8.42;100.00
59650;BME280;46162;57.568;25.814;2023-03-24T13:45:23;99306.88;;;8.44;100.00